Terminal Aerodrome Forecast
Issued by NWS Sterling, VA

Current Version | Previous Version | Text Only | Print | Product List | Glossary Off
Versions: 1 2 3 4 5 6 7 8 9 10 11 12 13 14 15 16 17 18 19 20 21 22 23 24 25 26 27 28 29

000
FTUS41 KLWX 301501 AAA
TAFIAD
TAF AMD
KIAD 301501Z 3015/0118 00000KT P6SM BKN080 BKN150
     FM302100 12005KT P6SM -SHRA OVC045
     FM010400 06008KT 6SM -SHRA OVC045
     FM010800 04013G20KT 6SM -SHRA OVC015
     FM011300 03012KT P6SM OVC015
     FM011700 04011KT P6SM BKN025=

USA.gov is the U.S. government's official web portal to all federal, state and local government web resources and services.